This is the latest recevied weather packets stored in our database for station/object OK2ARM-6. If no packets are shown the sender has not sent any weather packets the latest 10 day(s).
| Time | Temp. | Humidity | Pressure | Rain* | Wind** | Luminosity | Snow |
|---|---|---|---|---|---|---|---|
| 1777599026 | 1.67° C | 100% | 1029.2 hPa | - | - | - | - |
| 1777598425 | 1.67° C | 100% | 1029.2 hPa | - | - | - | - |
| 1777596025 | 0.56° C | 100% | 1029 hPa | - | - | - | - |
| 1777594081 | 0.56° C | 100% | 1029.1 hPa | - | - | - | - |
| 1777593480 | 0.56° C | 100% | 1029.1 hPa | - | - | - | - |
| 1777591080 | 1.11° C | 100% | 1029.2 hPa | - | - | - | - |
| 1777585681 | 2.78° C | 100% | 1029.1 hPa | - | - | - | - |
| 1777585081 | 2.78° C | 100% | 1029.1 hPa | - | - | - | - |
| 1777583137 | 4.44° C | 100% | 1029.1 hPa | - | - | - | - |
| 1777576850 | 6.67° C | 100% | 1028.7 hPa | - | - | - | - |
| 1777575050 | 8.89° C | 100% | 1028.4 hPa | - | - | - | - |
| 1777573849 | 10° C | 100% | 1028.3 hPa | - | - | - | - |
| 1777572649 | 11.11° C | 100% | 1028.2 hPa | - | - | - | - |
| 1777569505 | 14.44° C | 100% | 1028 hPa | - | - | - | - |
| 1777567705 | 15° C | 100% | 1027.9 hPa | - | - | - | - |
| 1777565305 | 17.22° C | 100% | 1028 hPa | - | - | - | - |
| 1777560362 | 20.56° C | 100% | 1028.3 hPa | - | - | - | - |
| 1777551987 | 16.11° C | 100% | 1029.5 hPa | - | - | - | - |
| 1777548940 | 15° C | 100% | 1029.8 hPa | - | - | - | - |
| 1777547740 | 16.11° C | 100% | 1030 hPa | - | - | - | - |
| 1777546396 | 15° C | 100% | 1030 hPa | - | - | - | - |
| 1777543252 | 13.33° C | 100% | 1030.5 hPa | - | - | - | - |
| 1777540852 | 11.67° C | 100% | 1030.6 hPa | - | - | - | - |
| 1777537252 | 8.89° C | 100% | 1030.9 hPa | - | - | - | - |
| 1777528564 | 1.67° C | 100% | 1031 hPa | - | - | - | - |
* Rain since midnight (hover to see other rain measurements)
** Current wind speed in m/s (hover to see current wind gust speed)